createdAt,value
2023-03-08T00:01:24.829Z,97963.75
2023-03-08T00:03:56.217Z,97969.72
2023-03-08T00:06:24.143Z,97961.19
2023-03-08T00:08:50.803Z,97956.69
2023-03-08T00:11:18.165Z,97971.19
2023-03-08T00:13:44.863Z,97960.78
2023-03-08T00:16:13.750Z,97957.78
2023-03-08T00:18:40.844Z,97960.19
2023-03-08T00:21:18.606Z,97950.56
2023-03-08T00:23:45.935Z,97955.13
2023-03-08T00:26:12.959Z,97949.75
2023-03-08T00:28:40.461Z,97950.34
2023-03-08T00:31:10.504Z,97942.13
2023-03-08T00:33:37.163Z,97945.09
2023-03-08T00:36:18.200Z,97945.69
2023-03-08T00:38:45.082Z,97943.13
2023-03-08T00:41:11.650Z,97943.72
2023-03-08T00:43:38.360Z,97952.03
2023-03-08T00:46:06.083Z,97940.13
2023-03-08T00:48:32.605Z,97949.25
2023-03-08T00:51:00.052Z,97944.50
2023-03-08T00:53:26.641Z,97942.09
2023-03-08T00:55:56.033Z,97941.91
2023-03-08T00:58:24.610Z,97941.69
2023-03-08T01:00:51.593Z,97943.59
2023-03-08T01:03:19.731Z,97946.56
2023-03-08T01:05:49.393Z,97940.50
2023-03-08T01:08:17.406Z,97939.41
2023-03-08T01:10:52.661Z,97931.38
2023-03-08T01:13:20.565Z,97928.69
2023-03-08T01:15:47.598Z,97920.66
2023-03-08T01:18:14.647Z,97916.41
2023-03-08T01:20:41.229Z,97923.34
2023-03-08T01:23:08.294Z,97903.00
2023-03-08T01:25:34.865Z,97907.88
2023-03-08T01:28:01.618Z,97901.41
2023-03-08T01:30:28.197Z,97906.78
2023-03-08T01:32:54.807Z,97896.38
2023-03-08T01:35:21.346Z,97897.16
2023-03-08T01:37:53.599Z,97900.94
2023-03-08T01:40:20.593Z,97902.00
2023-03-08T01:42:47.276Z,97910.28
2023-03-08T01:45:51.175Z,97914.28
2023-03-08T01:48:19.067Z,97897.91
2023-03-08T01:50:46.428Z,97905.88
2023-03-08T01:53:13.525Z,97886.28
2023-03-08T01:55:40.402Z,97882.19
2023-03-08T01:58:07.015Z,97873.72
2023-03-08T02:00:33.750Z,97865.78
2023-03-08T02:03:04.166Z,97866.16
2023-03-08T02:05:30.999Z,97855.41
2023-03-08T02:07:57.551Z,97852.31
2023-03-08T02:10:24.179Z,97851.00
2023-03-08T02:12:51.142Z,97837.13
2023-03-08T02:15:20.320Z,97839.03
2023-03-08T02:17:47.821Z,97832.16
2023-03-08T02:20:20.709Z,97830.03
2023-03-08T02:22:47.724Z,97823.84
2023-03-08T02:25:24.047Z,97820.31
2023-03-08T02:27:52.688Z,97820.50
2023-03-08T02:30:25.902Z,97809.06
2023-03-08T02:32:52.490Z,97808.25
2023-03-08T02:35:19.113Z,97803.13
2023-03-08T02:37:45.645Z,97799.38
2023-03-08T02:40:12.733Z,97798.00
2023-03-08T02:42:39.260Z,97792.34
2023-03-08T02:45:06.593Z,97791.50
2023-03-08T02:47:33.482Z,97793.88
2023-03-08T02:50:00.109Z,97791.13
2023-03-08T02:52:26.855Z,97779.94
2023-03-08T02:54:53.973Z,97763.97
2023-03-08T02:57:21.111Z,97760.72
2023-03-08T02:59:47.642Z,97766.56
2023-03-08T03:02:14.238Z,97773.50
2023-03-08T03:04:40.870Z,97779.94
2023-03-08T03:07:07.417Z,97777.84
2023-03-08T03:09:35.769Z,97768.25
2023-03-08T03:12:02.595Z,97758.44
2023-03-08T03:14:29.202Z,97745.34
2023-03-08T03:16:55.724Z,97737.06
2023-03-08T03:19:22.299Z,97735.66
2023-03-08T03:21:48.799Z,97723.09
2023-03-08T03:24:15.439Z,97737.47
2023-03-08T03:26:42.019Z,97727.28
2023-03-08T03:29:08.557Z,97720.66
2023-03-08T03:31:35.137Z,97705.19
2023-03-08T03:34:01.741Z,97697.97
2023-03-08T03:36:28.461Z,97694.69
2023-03-08T03:38:55.486Z,97687.00
2023-03-08T03:41:23.550Z,97696.28
2023-03-08T03:43:50.534Z,97685.31
2023-03-08T03:46:19.332Z,97683.16
2023-03-08T03:48:46.214Z,97683.72
2023-03-08T03:51:20.890Z,97669.88
2023-03-08T03:53:48.523Z,97662.84
2023-03-08T03:56:19.188Z,97649.50
2023-03-08T03:58:46.718Z,97649.19
2023-03-08T04:01:30.929Z,97650.84
2023-03-08T04:03:58.218Z,97632.16
2023-03-08T04:06:27.799Z,97637.81
2023-03-08T04:08:57.051Z,97626.03
2023-03-08T04:11:26.424Z,97632.97
2023-03-08T04:13:53.027Z,97632.97
2023-03-08T04:16:29.429Z,97628.22
2023-03-08T04:18:58.758Z,97621.78
2023-03-08T04:21:25.637Z,97615.94
2023-03-08T04:23:52.883Z,97618.09
2023-03-08T04:26:20.023Z,97616.50
2023-03-08T04:28:46.688Z,97615.72
2023-03-08T04:31:16.295Z,97617.81
2023-03-08T04:33:43.818Z,97611.75
2023-03-08T04:36:10.462Z,97598.72
2023-03-08T04:38:37.106Z,97592.06
2023-03-08T04:41:13.102Z,97589.88
2023-03-08T04:43:53.975Z,97595.81
2023-03-08T04:46:24.800Z,97591.06
2023-03-08T04:48:54.094Z,97582.25
2023-03-08T04:51:21.186Z,97566.22
2023-03-08T04:53:47.861Z,97555.53
2023-03-08T04:56:16.521Z,97544.84
2023-03-08T04:58:43.902Z,97536.06
2023-03-08T05:01:17.855Z,97527.44
2023-03-08T05:03:45.089Z,97518.06
2023-03-08T05:06:14.222Z,97512.91
2023-03-08T05:08:41.085Z,97501.63
2023-03-08T05:11:07.599Z,97493.31
2023-03-08T05:13:36.911Z,97476.78
2023-03-08T05:16:05.471Z,97478.66
2023-03-08T05:18:32.293Z,97481.94
2023-03-08T05:21:01.480Z,97473.22
2023-03-08T05:23:29.087Z,97472.22
2023-03-08T05:25:57.408Z,97479.75
2023-03-08T05:28:25.982Z,97466.03
2023-03-08T05:31:07.057Z,97471.25
2023-03-08T05:33:35.511Z,97471.03
2023-03-08T05:36:03.009Z,97469.28
2023-03-08T05:38:29.686Z,97473.31
2023-03-08T05:41:04.275Z,97466.50
2023-03-08T05:43:31.225Z,97467.88
2023-03-08T05:46:10.637Z,97470.84
2023-03-08T05:48:37.860Z,97470.84
2023-03-08T05:51:06.607Z,97479.97
2023-03-08T05:53:33.262Z,97484.50
2023-03-08T05:56:15.059Z,97477.66
2023-03-08T05:58:43.714Z,97471.84
2023-03-08T06:01:25.309Z,97466.41
2023-03-08T06:03:54.680Z,97461.59
2023-03-08T06:06:22.937Z,97451.72
2023-03-08T06:08:49.697Z,97449.47
2023-03-08T06:11:16.799Z,97454.56
2023-03-08T06:13:43.505Z,97443.78
2023-03-08T06:16:10.865Z,97444.53
2023-03-08T06:18:39.497Z,97442.19
2023-03-08T06:21:15.029Z,97428.38
2023-03-08T06:23:42.336Z,97426.25
2023-03-08T06:26:09.700Z,97421.00
2023-03-08T06:28:37.769Z,97404.59
2023-03-08T06:31:04.558Z,97407.16
2023-03-08T06:33:33.561Z,97409.09
2023-03-08T06:36:00.196Z,97401.56
2023-03-08T06:38:29.896Z,97396.19
2023-03-08T06:40:57.302Z,97384.41
2023-03-08T06:43:24.633Z,97383.97
2023-03-08T06:45:51.287Z,97372.59
2023-03-08T06:48:18.087Z,97367.34
2023-03-08T06:50:45.343Z,97358.38
2023-03-08T06:53:12.732Z,97350.66
2023-03-08T06:55:41.170Z,97334.25
2023-03-08T06:58:08.550Z,97326.63
2023-03-08T07:00:35.236Z,97328.09
2023-03-08T07:03:02.020Z,97319.66
2023-03-08T07:05:28.578Z,97317.81
2023-03-08T07:07:55.100Z,97317.22
2023-03-08T07:10:22.218Z,97316.16
2023-03-08T07:12:51.339Z,97306.00
2023-03-08T07:15:20.152Z,97304.63
2023-03-08T07:17:48.238Z,97296.31
2023-03-08T07:20:17.380Z,97299.00
2023-03-08T07:22:44.972Z,97288.34
2023-03-08T07:25:13.198Z,97278.97
2023-03-08T07:27:39.777Z,97272.25
2023-03-08T07:30:09.714Z,97269.53
2023-03-08T07:32:39.902Z,97267.38
2023-03-08T07:35:08.273Z,97260.16
2023-03-08T07:37:34.900Z,97258.56
2023-03-08T07:40:01.456Z,97252.38
2023-03-08T07:42:28.090Z,97253.94
2023-03-08T07:44:54.613Z,97243.78
2023-03-08T07:47:21.836Z,97238.19
2023-03-08T07:49:48.449Z,97249.03
2023-03-08T07:52:15.227Z,97246.84
2023-03-08T07:54:41.984Z,97232.44
2023-03-08T08:02:37.838Z,97240.97
2023-03-08T08:05:05.256Z,97233.16
2023-03-08T08:07:31.812Z,97230.47
2023-03-08T08:09:58.362Z,97224.97
2023-03-08T08:12:24.922Z,97221.50
2023-03-08T08:14:52.978Z,97223.56
2023-03-08T08:17:20.223Z,97213.72
2023-03-08T08:19:47.140Z,97209.06
2023-03-08T08:22:14.743Z,97208.66
2023-03-08T08:24:41.318Z,97199.31
2023-03-08T08:27:07.850Z,97191.00
2023-03-08T08:29:34.413Z,97183.47
2023-03-08T08:32:00.952Z,97179.16
2023-03-08T08:34:27.491Z,97178.56
2023-03-08T08:36:54.019Z,97174.22
2023-03-08T08:39:20.594Z,97166.41
2023-03-08T08:41:49.320Z,97167.88
2023-03-08T08:44:15.943Z,97172.00
2023-03-08T08:46:42.505Z,97170.22
2023-03-08T08:49:10.129Z,97159.94
2023-03-08T08:51:36.777Z,97161.09
2023-03-08T08:54:03.679Z,97163.34
2023-03-08T08:56:30.517Z,97160.88
2023-03-08T08:58:59.565Z,97161.84
2023-03-08T09:01:30.106Z,97165.19
2023-03-08T09:03:56.788Z,97166.34
2023-03-08T09:06:25.367Z,97154.44
2023-03-08T09:08:54.832Z,97162.34
2023-03-08T09:11:22.328Z,97155.31
2023-03-08T09:13:49.080Z,97155.19
2023-03-08T09:16:24.691Z,97156.16
2023-03-08T09:18:52.278Z,97149.59
2023-03-08T09:21:19.457Z,97148.41
2023-03-08T09:23:46.212Z,97140.25
2023-03-08T09:26:12.868Z,97134.91
2023-03-08T09:28:40.017Z,97127.25
2023-03-08T09:31:12.168Z,97121.75
2023-03-08T09:33:43.714Z,97114.41
2023-03-08T09:36:14.275Z,97113.16
2023-03-08T09:38:41.299Z,97109.59
2023-03-08T09:41:15.848Z,97110.53
2023-03-08T09:43:55.847Z,97103.00
2023-03-08T09:46:36.206Z,97093.59
2023-03-08T09:49:06.968Z,97099.91
2023-03-08T09:51:38.410Z,97093.50
2023-03-08T09:54:13.927Z,97095.41
2023-03-08T09:56:50.781Z,97099.53
2023-03-08T09:59:24.606Z,97086.81
2023-03-08T10:01:56.180Z,97070.03
2023-03-08T10:04:25.937Z,97077.25
2023-03-08T10:07:18.374Z,97069.66
2023-03-08T10:09:58.439Z,97078.88
2023-03-08T10:13:02.734Z,97073.84
2023-03-08T10:15:33.038Z,97071.69
2023-03-08T10:18:13.703Z,97069.31
2023-03-08T10:20:41.933Z,97074.38
2023-03-08T10:23:20.680Z,97070.91
2023-03-08T10:25:49.500Z,97071.56
2023-03-08T10:28:19.302Z,97078.34
2023-03-08T10:30:55.423Z,97075.16
2023-03-08T10:33:26.661Z,97070.28
2023-03-08T10:35:53.167Z,97072.06
2023-03-08T10:38:19.751Z,97069.28
2023-03-08T10:40:46.673Z,97078.38
2023-03-08T10:43:40.466Z,97066.09
2023-03-08T10:46:14.379Z,97070.34
2023-03-08T10:48:41.165Z,97072.13
2023-03-08T10:51:17.752Z,97086.94
2023-03-08T10:53:58.657Z,97080.91
2023-03-08T10:56:32.279Z,97091.44
2023-03-08T10:58:59.674Z,97091.19
2023-03-08T11:01:30.421Z,97098.38
2023-03-08T11:04:03.194Z,97087.63
2023-03-08T11:06:30.389Z,97085.13
2023-03-08T11:09:00.024Z,97083.34
2023-03-08T11:11:27.651Z,97091.63
2023-03-08T11:13:55.367Z,97091.63
2023-03-08T11:16:56.062Z,97092.63
2023-03-08T11:19:37.842Z,97102.16
2023-03-08T11:22:13.400Z,97096.97
2023-03-08T11:24:39.915Z,97099.66
2023-03-08T11:27:41.113Z,97101.41
2023-03-08T11:30:27.291Z,97108.56
2023-03-08T11:33:22.176Z,97104.09
2023-03-08T11:36:13.798Z,97090.53
2023-03-08T11:38:41.991Z,97095.44
2023-03-08T11:41:46.071Z,97088.56
2023-03-08T11:44:48.179Z,97097.63
2023-03-08T11:47:34.158Z,97103.47
2023-03-08T11:50:28.793Z,97108.16
2023-03-08T11:52:58.460Z,97085.91
2023-03-08T11:55:42.946Z,97090.84
2023-03-08T11:58:13.599Z,97103.91
2023-03-08T12:00:42.927Z,97113.13
2023-03-08T12:03:13.189Z,97101.03
2023-03-08T12:05:46.231Z,97113.38
2023-03-08T12:08:25.414Z,97110.25
2023-03-08T12:11:01.903Z,97125.56
2023-03-08T12:13:42.099Z,97136.09
2023-03-08T12:16:11.393Z,97105.72
2023-03-08T12:18:46.737Z,97061.00
2023-03-08T12:21:27.524Z,97065.72
2023-03-08T12:23:57.189Z,97078.94
2023-03-08T12:26:33.259Z,97079.47
2023-03-08T12:29:09.908Z,97076.94
2023-03-08T12:31:48.461Z,97073.56
2023-03-08T12:34:26.063Z,97059.81
2023-03-08T12:36:52.979Z,97054.94
2023-03-08T12:39:37.852Z,97052.22
2023-03-08T12:42:10.419Z,97047.38
2023-03-08T12:44:38.337Z,97061.38
2023-03-08T12:47:14.089Z,97037.09
2023-03-08T12:49:44.586Z,97075.75
2023-03-08T12:52:20.201Z,97069.91
2023-03-08T12:55:09.026Z,97082.97
2023-03-08T12:57:56.235Z,97067.50
2023-03-08T13:00:35.575Z,97058.97
2023-03-08T13:03:13.959Z,97041.25
2023-03-08T13:05:45.318Z,97042.94
2023-03-08T13:08:14.711Z,97051.13
2023-03-08T13:10:57.508Z,97059.28
2023-03-08T13:13:38.087Z,97054.06
2023-03-08T13:16:08.334Z,97065.75
2023-03-08T13:18:36.991Z,97065.91
2023-03-08T13:21:16.433Z,97065.63
2023-03-08T13:23:52.943Z,97080.03
2023-03-08T13:26:35.201Z,97072.09
2023-03-08T13:29:14.721Z,97051.88
2023-03-08T13:31:43.395Z,97045.56
2023-03-08T13:34:33.220Z,97058.38
2023-03-08T13:36:59.857Z,97056.59
2023-03-08T13:39:30.187Z,97065.66
2023-03-08T13:42:11.511Z,97044.16
2023-03-08T13:44:38.365Z,97058.34
2023-03-08T13:47:18.718Z,97040.75
2023-03-08T13:49:51.615Z,97051.72
2023-03-08T13:52:31.017Z,97051.38
2023-03-08T13:55:03.483Z,97039.84
2023-03-08T13:57:36.638Z,97043.31
2023-03-08T14:00:21.985Z,97037.84
2023-03-08T14:02:48.758Z,97033.16
2023-03-08T14:05:26.882Z,97031.50
2023-03-08T14:07:57.352Z,97047.59
2023-03-08T14:10:35.180Z,97049.06
2023-03-08T14:13:03.495Z,97051.69
2023-03-08T14:15:33.450Z,97042.31
2023-03-08T14:18:00.780Z,97058.41
2023-03-08T14:20:27.647Z,97049.00
2023-03-08T14:22:55.136Z,97050.41
2023-03-08T14:25:26.307Z,97043.72
2023-03-08T14:27:53.860Z,97054.44
2023-03-08T14:30:26.717Z,97055.94
2023-03-08T14:33:07.169Z,97056.22
2023-03-08T14:35:40.202Z,97060.31
2023-03-08T14:38:21.014Z,97067.03
2023-03-08T14:40:51.847Z,97055.38
2023-03-08T14:43:21.817Z,97049.84
2023-03-08T14:46:06.332Z,97025.13
2023-03-08T14:48:37.316Z,97023.50
2023-03-08T14:51:19.893Z,97031.84
2023-03-08T14:54:01.783Z,97029.06
2023-03-08T14:56:30.529Z,97018.28
2023-03-08T14:59:00.813Z,97015.38
2023-03-08T15:01:32.985Z,97029.59
2023-03-08T15:03:59.833Z,97025.31
2023-03-08T15:06:33.123Z,97014.53
2023-03-08T15:09:00.959Z,97020.63
2023-03-08T15:11:31.472Z,97025.16
2023-03-08T15:14:01.802Z,97019.25
2023-03-08T15:16:28.545Z,97006.44
2023-03-08T15:18:55.383Z,97012.66
2023-03-08T15:21:27.185Z,97013.31
2023-03-08T15:23:54.759Z,97013.09
2023-03-08T15:26:26.750Z,97000.97
2023-03-08T15:28:53.653Z,96987.22
2023-03-08T15:31:20.302Z,97000.72
2023-03-08T15:33:46.908Z,96996.19
2023-03-08T15:36:16.865Z,96988.28
2023-03-08T15:38:43.982Z,96974.53
2023-03-08T15:41:14.496Z,96986.19
2023-03-08T15:43:41.349Z,96992.44
2023-03-08T15:46:12.356Z,96995.94
2023-03-08T15:48:39.041Z,96985.47
2023-03-08T15:51:05.817Z,96989.31
2023-03-08T15:53:35.776Z,96988.53
2023-03-08T15:56:03.188Z,96994.00
2023-03-08T15:58:29.724Z,96984.00
2023-03-08T16:00:56.310Z,96979.03
2023-03-08T16:03:30.895Z,96972.59
2023-03-08T16:05:58.714Z,96963.38
2023-03-08T16:08:25.893Z,96971.03
2023-03-08T16:10:52.603Z,96968.34
2023-03-08T16:13:21.890Z,96974.88
2023-03-08T16:15:49.395Z,96951.72
2023-03-08T16:18:16.097Z,96961.72
2023-03-08T16:20:42.744Z,96957.13
2023-03-08T16:23:09.313Z,96950.91
2023-03-08T16:25:35.841Z,96951.72
2023-03-08T16:28:02.437Z,96933.16
2023-03-08T16:30:29.777Z,96937.09
2023-03-08T16:32:56.355Z,96931.69
2023-03-08T16:35:22.953Z,96917.06
2023-03-08T16:40:34.129Z,96931.56
2023-03-08T16:43:00.687Z,96929.72
2023-03-08T16:45:27.215Z,96929.91
2023-03-08T16:47:53.727Z,96940.75
2023-03-08T16:50:20.252Z,96947.78
2023-03-08T16:52:46.876Z,96937.84
2023-03-08T16:55:13.562Z,96931.75
2023-03-08T16:57:40.343Z,96947.22
2023-03-08T17:00:10.406Z,96959.63
2023-03-08T17:02:36.991Z,96948.81
2023-03-08T17:05:04.925Z,96955.00
2023-03-08T17:07:31.856Z,96973.81
2023-03-08T17:09:58.590Z,96966.78
2023-03-08T17:12:25.168Z,96968.97
2023-03-08T17:14:51.727Z,96974.66
2023-03-08T17:17:18.251Z,96975.34
2023-03-08T17:19:46.315Z,96975.59
2023-03-08T17:22:12.912Z,96981.72
2023-03-08T17:24:39.583Z,96990.09
2023-03-08T17:27:06.199Z,96991.91
2023-03-08T17:29:32.740Z,96970.25
2023-03-08T17:31:59.259Z,96971.03
2023-03-08T17:34:25.898Z,96976.34
2023-03-08T17:36:52.588Z,96958.59
2023-03-08T17:39:19.934Z,96960.56
2023-03-08T17:41:46.553Z,96965.63
2023-03-08T17:44:14.115Z,96971.47
2023-03-08T17:46:40.736Z,96972.94
2023-03-08T17:49:07.342Z,96984.16
2023-03-08T17:51:34.248Z,96999.59
2023-03-08T17:54:02.236Z,96995.75
2023-03-08T17:56:30.459Z,96979.91
2023-03-08T17:59:01.206Z,96993.06
2023-03-08T18:01:30.709Z,96981.13
2023-03-08T18:03:58.300Z,96956.84
2023-03-08T18:06:27.466Z,96950.72
2023-03-08T18:08:54.436Z,96931.56
2023-03-08T18:11:21.155Z,96958.28
2023-03-08T18:13:48.787Z,96947.66
2023-03-08T18:16:15.520Z,96937.00
2023-03-08T18:18:42.217Z,96948.66
2023-03-08T18:21:13.897Z,96938.28
2023-03-08T18:23:42.689Z,96939.84
2023-03-08T18:26:11.594Z,96936.44
2023-03-08T18:28:38.497Z,96949.59
2023-03-08T18:31:10.917Z,96949.72
2023-03-08T18:33:37.671Z,96950.13
2023-03-08T18:36:04.660Z,96946.63
2023-03-08T18:38:31.217Z,96951.34
2023-03-08T18:40:57.755Z,96943.59
2023-03-08T18:43:25.419Z,96947.44
2023-03-08T18:45:56.550Z,96959.81
2023-03-08T18:48:24.218Z,96956.81
2023-03-08T18:50:50.856Z,96961.06
2023-03-08T18:53:17.736Z,96949.50
2023-03-08T18:55:55.469Z,96959.19
2023-03-08T18:58:22.144Z,96966.41
2023-03-08T19:00:48.717Z,96968.34
2023-03-08T19:03:15.361Z,96959.81
2023-03-08T19:05:41.891Z,96963.63
2023-03-08T19:08:08.508Z,96979.41
2023-03-08T19:10:35.122Z,96993.34
2023-03-08T19:13:01.766Z,96981.41
2023-03-08T19:15:28.260Z,96978.34
2023-03-08T19:17:56.371Z,96989.22
2023-03-08T19:20:22.857Z,97003.97
2023-03-08T19:22:49.503Z,97002.81
2023-03-08T19:25:16.362Z,97007.50
2023-03-08T19:27:42.893Z,97007.13
2023-03-08T19:30:10.136Z,97013.75
2023-03-08T19:32:36.908Z,97008.69
2023-03-08T19:35:04.453Z,97005.66
2023-03-08T19:37:31.486Z,97009.59
2023-03-08T19:39:59.723Z,97007.59
2023-03-08T19:42:27.501Z,97009.59
2023-03-08T19:44:54.056Z,97044.34
2023-03-08T19:47:20.875Z,97012.00
2023-03-08T19:49:47.408Z,97000.41
2023-03-08T19:52:14.186Z,97015.84
2023-03-08T19:54:42.066Z,97004.94
2023-03-08T19:57:10.302Z,96977.16
2023-03-08T19:59:37.551Z,96978.72
2023-03-08T20:02:05.963Z,96982.19
2023-03-08T20:04:32.599Z,96957.13
2023-03-08T20:07:01.135Z,96956.31
2023-03-08T20:09:27.742Z,97001.06
2023-03-08T20:11:58.459Z,97012.63
2023-03-08T20:14:27.226Z,97004.91
2023-03-08T20:16:54.731Z,97014.09
2023-03-08T20:19:21.443Z,97012.63
2023-03-08T20:21:48.213Z,97015.34
2023-03-08T20:24:18.023Z,97013.75
2023-03-08T20:26:44.870Z,97013.00
2023-03-08T20:29:11.389Z,97009.84
2023-03-08T20:31:37.907Z,97015.19
2023-03-08T20:34:04.570Z,97014.06
2023-03-08T20:36:31.158Z,97009.00
2023-03-08T20:38:58.886Z,97009.41
2023-03-08T20:41:25.755Z,97000.16
2023-03-08T20:43:55.555Z,97007.84
2023-03-08T20:46:26.027Z,97017.88
2023-03-08T20:48:52.895Z,97005.56
2023-03-08T20:51:21.393Z,97003.31
2023-03-08T20:53:50.550Z,97007.22
2023-03-08T20:56:19.747Z,96994.78
2023-03-08T20:58:46.745Z,96989.31
2023-03-08T21:01:19.891Z,96987.66
2023-03-08T21:03:47.276Z,96977.56
2023-03-08T21:06:19.832Z,96973.22
2023-03-08T21:08:47.578Z,96963.44
2023-03-08T21:11:14.983Z,96969.63
2023-03-08T21:13:41.714Z,96959.53
2023-03-08T21:16:12.667Z,96954.84
2023-03-08T21:18:39.295Z,96949.38
2023-03-08T21:21:06.089Z,96936.16
2023-03-08T21:23:32.648Z,96934.59
2023-03-08T21:26:01.147Z,96927.19
2023-03-08T21:28:27.982Z,96932.16
2023-03-08T21:30:54.757Z,96928.34
2023-03-08T21:33:21.324Z,96922.66
2023-03-08T21:35:47.914Z,96905.31
2023-03-08T21:38:14.434Z,96901.91
2023-03-08T21:40:42.714Z,96895.03
2023-03-08T21:43:09.647Z,96897.00
2023-03-08T21:45:41.811Z,96894.81
2023-03-08T21:48:09.310Z,96889.59
2023-03-08T21:50:39.685Z,96887.00
2023-03-08T21:53:07.642Z,96909.91
2023-03-08T21:56:09.698Z,96898.41
2023-03-08T21:58:37.094Z,96900.44
2023-03-08T22:01:05.069Z,96901.66
2023-03-08T22:03:33.451Z,96909.47
2023-03-08T22:06:00.770Z,96903.34
2023-03-08T22:08:27.374Z,96908.75
2023-03-08T22:10:54.133Z,96904.13
2023-03-08T22:13:21.152Z,96911.81
2023-03-08T22:15:47.732Z,96900.59
2023-03-08T22:18:14.309Z,96934.94
2023-03-08T22:20:40.897Z,96940.75
2023-03-08T22:23:07.439Z,96949.56
2023-03-08T22:25:34.049Z,96933.94
2023-03-08T22:28:00.620Z,96932.16
2023-03-08T22:30:27.377Z,96924.25
2023-03-08T22:32:55.049Z,96929.91
2023-03-08T22:35:22.344Z,96931.75
2023-03-08T22:37:49.404Z,96932.53
2023-03-08T22:40:18.885Z,96931.75
2023-03-08T22:42:46.455Z,96931.75
2023-03-08T22:45:13.191Z,96929.00
2023-03-08T22:47:40.000Z,96927.34
2023-03-08T22:50:07.273Z,96919.00
2023-03-08T22:52:33.896Z,96874.88
2023-03-08T22:55:00.568Z,96799.19
2023-03-08T22:57:27.142Z,96877.72
2023-03-08T22:59:58.049Z,96873.72
2023-03-08T23:02:25.142Z,96881.38
2023-03-08T23:04:51.732Z,96886.34
2023-03-08T23:07:18.319Z,96888.19
2023-03-08T23:09:44.900Z,96884.25
2023-03-08T23:12:11.487Z,96884.19
2023-03-08T23:14:38.054Z,96901.16
2023-03-08T23:17:04.603Z,96899.59
2023-03-08T23:19:31.141Z,96899.59
2023-03-08T23:21:58.083Z,96901.88
2023-03-08T23:24:24.618Z,96899.97
2023-03-08T23:26:51.303Z,96901.78
2023-03-08T23:29:17.836Z,96893.25
2023-03-08T23:31:46.291Z,96900.22
2023-03-08T23:34:12.927Z,96884.72
2023-03-08T23:36:39.546Z,96887.78
2023-03-08T23:39:06.171Z,96893.94
2023-03-08T23:41:32.744Z,96897.06
2023-03-08T23:44:01.193Z,96896.38
2023-03-08T23:46:28.736Z,96894.13
2023-03-08T23:48:57.203Z,96895.69
2023-03-08T23:51:26.335Z,96889.50
2023-03-08T23:53:55.194Z,96901.88
2023-03-08T23:56:26.820Z,96904.22
2023-03-08T23:58:58.508Z,96915.34
